createdAt,value
2019-02-26T00:00:10.274Z,87.24
2019-02-26T00:01:09.648Z,87.15
2019-02-26T00:02:09.614Z,87.15
2019-02-26T00:03:09.574Z,87.53
2019-02-26T00:04:09.539Z,87.24
2019-02-26T00:05:09.499Z,87.24
2019-02-26T00:06:09.465Z,87.34
2019-02-26T00:07:09.425Z,87.72
2019-02-26T00:08:09.396Z,88.10
2019-02-26T00:09:09.349Z,87.34
2019-02-26T00:10:09.320Z,87.72
2019-02-26T00:11:10.813Z,87.72
2019-02-26T00:12:09.244Z,87.68
2019-02-26T00:13:09.209Z,87.49
2019-02-26T00:14:13.140Z,87.58
2019-02-26T00:15:09.153Z,87.96
2019-02-26T00:16:10.547Z,88.06
2019-02-26T00:17:11.163Z,87.58
2019-02-26T00:18:11.567Z,87.87
2019-02-26T00:19:09.829Z,88.06
2019-02-26T00:20:10.951Z,87.87
2019-02-26T00:21:08.926Z,87.77
2019-02-26T00:22:09.528Z,87.77
2019-02-26T00:23:08.850Z,87.77
2019-02-26T00:24:09.900Z,87.68
2019-02-26T00:25:10.453Z,87.77
2019-02-26T00:26:10.483Z,87.77
2019-02-26T00:27:09.732Z,87.87
2019-02-26T00:28:08.664Z,88.24
2019-02-26T00:29:08.630Z,88.06
2019-02-26T00:30:09.620Z,87.96
2019-02-26T00:31:08.555Z,87.96
2019-02-26T00:32:10.093Z,88.06
2019-02-26T00:33:08.477Z,87.87
2019-02-26T00:34:10.683Z,87.87
2019-02-26T00:35:08.409Z,88.15
2019-02-26T00:36:08.968Z,87.96
2019-02-26T00:37:08.483Z,87.87
2019-02-26T00:38:08.953Z,88.15
2019-02-26T00:39:08.266Z,88.06
2019-02-26T00:40:09.970Z,87.87
2019-02-26T00:41:08.190Z,88.06
2019-02-26T00:42:08.157Z,87.77
2019-02-26T00:43:08.124Z,87.87
2019-02-26T00:44:08.079Z,87.96
2019-02-26T00:45:08.051Z,87.63
2019-02-26T00:46:09.876Z,87.77
2019-02-26T00:47:08.938Z,87.54
2019-02-26T00:48:07.932Z,87.82
2019-02-26T00:49:07.893Z,87.77
2019-02-26T00:50:09.549Z,87.58
2019-02-26T00:51:07.834Z,87.92
2019-02-26T00:52:08.708Z,87.73
2019-02-26T00:53:07.750Z,87.63
2019-02-26T00:54:07.715Z,87.73
2019-02-26T00:55:09.367Z,87.54
2019-02-26T00:56:08.380Z,87.63
2019-02-26T00:57:08.615Z,87.82
2019-02-26T00:58:08.447Z,87.92
2019-02-26T00:59:07.532Z,87.35
2019-02-26T01:00:08.112Z,87.82
2019-02-26T01:01:10.220Z,87.54
2019-02-26T01:02:07.430Z,87.73
2019-02-26T01:03:09.275Z,87.25
2019-02-26T01:04:07.346Z,87.73
2019-02-26T01:05:08.724Z,87.45
2019-02-26T01:06:07.997Z,87.25
2019-02-26T01:07:07.602Z,87.06
2019-02-26T01:08:10.536Z,87.16
2019-02-26T01:09:09.340Z,87.25
2019-02-26T01:10:07.133Z,87.06
2019-02-26T01:11:08.287Z,87.25
2019-02-26T01:12:09.033Z,87.16
2019-02-26T01:13:07.337Z,86.87
2019-02-26T01:14:06.981Z,87.25
2019-02-26T01:15:07.809Z,87.25
2019-02-26T01:16:06.901Z,87.16
2019-02-26T01:17:08.133Z,86.87
2019-02-26T01:18:06.837Z,87.06
2019-02-26T01:19:08.540Z,87.06
2019-02-26T01:20:06.762Z,86.87
2019-02-26T01:21:06.709Z,87.16
2019-02-26T01:22:06.676Z,87.25
2019-02-26T01:23:06.656Z,87.63
2019-02-26T01:24:08.584Z,86.87
2019-02-26T01:25:06.572Z,87.45
2019-02-26T01:26:06.538Z,87.16
2019-02-26T01:27:06.498Z,87.06
2019-02-26T01:28:06.463Z,86.97
2019-02-26T01:29:06.425Z,87.06
2019-02-26T01:30:06.389Z,87.54
2019-02-26T01:31:07.388Z,87.16
2019-02-26T01:32:08.911Z,87.06
2019-02-26T01:33:08.002Z,86.87
2019-02-26T01:34:06.245Z,86.78
2019-02-26T01:35:08.195Z,86.97
2019-02-26T01:36:06.165Z,87.54
2019-02-26T01:37:08.087Z,86.87
2019-02-26T01:38:06.100Z,86.97
2019-02-26T01:39:09.307Z,86.97
2019-02-26T01:40:09.396Z,87.82
2019-02-26T01:41:05.983Z,87.54
2019-02-26T01:42:05.938Z,87.54
2019-02-26T01:43:05.905Z,87.45
2019-02-26T01:44:05.878Z,87.73
2019-02-26T01:45:05.838Z,87.54
2019-02-26T01:46:07.774Z,87.54
2019-02-26T01:47:05.762Z,87.63
2019-02-26T01:48:06.331Z,87.45
2019-02-26T01:49:05.685Z,87.54
2019-02-26T01:50:06.936Z,87.25
2019-02-26T01:51:05.619Z,87.45
2019-02-26T01:52:06.219Z,87.45
2019-02-26T01:53:05.550Z,86.97
2019-02-26T01:54:07.521Z,87.45
2019-02-26T01:55:05.476Z,86.97
2019-02-26T01:56:05.431Z,87.35
2019-02-26T01:57:08.563Z,87.63
2019-02-26T01:58:05.361Z,87.73
2019-02-26T01:59:05.325Z,87.45
2019-02-26T02:00:06.922Z,87.45
2019-02-26T02:01:05.246Z,87.63
2019-02-26T02:02:05.210Z,87.16
2019-02-26T02:03:05.180Z,87.16
2019-02-26T02:04:05.135Z,86.87
2019-02-26T02:05:07.042Z,87.63
2019-02-26T02:06:06.248Z,87.16
2019-02-26T02:07:06.036Z,87.73
2019-02-26T02:08:07.254Z,87.16
2019-02-26T02:09:04.952Z,87.25
2019-02-26T02:10:04.912Z,87.25
2019-02-26T02:11:07.408Z,87.63
2019-02-26T02:12:06.593Z,87.73
2019-02-26T02:13:07.058Z,87.45
2019-02-26T02:14:06.036Z,87.92
2019-02-26T02:15:04.736Z,87.35
2019-02-26T02:16:06.642Z,87.73
2019-02-26T02:17:06.045Z,87.63
2019-02-26T02:18:06.215Z,87.54
2019-02-26T02:19:04.583Z,87.63
2019-02-26T02:20:07.703Z,87.25
2019-02-26T02:21:04.506Z,87.16
2019-02-26T02:22:04.471Z,88.01
2019-02-26T02:23:05.352Z,87.54
2019-02-26T02:24:05.717Z,87.63
2019-02-26T02:25:04.362Z,87.63
2019-02-26T02:26:06.486Z,87.63
2019-02-26T02:27:04.281Z,87.45
2019-02-26T02:28:04.568Z,87.45
2019-02-26T02:29:04.208Z,87.54
2019-02-26T02:30:04.184Z,87.06
2019-02-26T02:31:04.145Z,87.45
2019-02-26T02:32:04.953Z,87.63
2019-02-26T02:33:04.075Z,87.73
2019-02-26T02:34:04.028Z,87.63
2019-02-26T02:35:06.825Z,87.73
2019-02-26T02:36:03.963Z,86.97
2019-02-26T02:37:03.919Z,87.63
2019-02-26T02:38:04.960Z,87.63
2019-02-26T02:39:03.860Z,87.35
2019-02-26T02:40:03.817Z,87.73
2019-02-26T02:41:03.783Z,87.73
2019-02-26T02:42:03.733Z,87.25
2019-02-26T02:43:04.442Z,87.54
2019-02-26T02:44:03.658Z,87.54
2019-02-26T02:45:05.236Z,87.92
2019-02-26T02:46:03.589Z,87.54
2019-02-26T02:47:04.309Z,87.73
2019-02-26T02:48:06.235Z,87.35
2019-02-26T02:49:04.741Z,87.73
2019-02-26T02:50:05.590Z,87.45
2019-02-26T02:51:05.454Z,87.45
2019-02-26T02:52:04.145Z,87.63
2019-02-26T02:53:04.032Z,87.92
2019-02-26T02:54:03.293Z,87.92
2019-02-26T02:55:04.583Z,87.63
2019-02-26T02:56:03.738Z,87.54
2019-02-26T02:57:05.382Z,88.01
2019-02-26T02:58:03.143Z,87.73
2019-02-26T02:59:05.393Z,87.92
2019-02-26T03:00:05.582Z,87.92
2019-02-26T03:01:03.035Z,87.63
2019-02-26T03:02:02.992Z,87.45
2019-02-26T03:03:02.959Z,87.63
2019-02-26T03:04:02.917Z,87.45
2019-02-26T03:05:02.894Z,88.20
2019-02-26T03:06:04.908Z,87.40
2019-02-26T03:07:03.222Z,87.40
2019-02-26T03:08:02.776Z,87.59
2019-02-26T03:09:02.733Z,87.87
2019-02-26T03:10:06.116Z,88.10
2019-02-26T03:11:02.653Z,88.01
2019-02-26T03:12:02.631Z,87.97
2019-02-26T03:13:02.958Z,88.16
2019-02-26T03:14:02.545Z,87.87
2019-02-26T03:15:05.014Z,87.97
2019-02-26T03:16:02.482Z,88.06
2019-02-26T03:17:02.439Z,87.77
2019-02-26T03:18:04.166Z,88.06
2019-02-26T03:19:04.147Z,87.77
2019-02-26T03:20:04.914Z,88.16
2019-02-26T03:21:04.771Z,88.16
2019-02-26T03:22:02.249Z,88.54
2019-02-26T03:23:04.096Z,88.35
2019-02-26T03:24:03.515Z,88.54
2019-02-26T03:25:02.553Z,88.16
2019-02-26T03:26:02.114Z,87.87
2019-02-26T03:27:02.076Z,88.16
2019-02-26T03:28:02.033Z,88.35
2019-02-26T03:29:01.993Z,88.35
2019-02-26T03:30:02.272Z,88.35
2019-02-26T03:31:01.916Z,88.44
2019-02-26T03:32:01.901Z,88.54
2019-02-26T03:33:04.335Z,88.35
2019-02-26T03:34:08.779Z,88.44
2019-02-26T03:35:04.760Z,88.35
2019-02-26T03:36:05.442Z,88.35
2019-02-26T03:37:03.748Z,88.35
2019-02-26T03:38:03.571Z,88.44
2019-02-26T03:39:02.813Z,88.35
2019-02-26T03:40:03.651Z,88.44
2019-02-26T03:41:03.625Z,88.35
2019-02-26T03:42:01.509Z,88.25
2019-02-26T03:43:04.420Z,88.44
2019-02-26T03:44:03.321Z,88.16
2019-02-26T03:45:02.902Z,88.16
2019-02-26T03:46:01.354Z,88.35
2019-02-26T03:47:01.316Z,88.16
2019-02-26T03:48:01.276Z,88.25
2019-02-26T03:49:02.707Z,88.25
2019-02-26T03:50:01.218Z,88.35
2019-02-26T03:51:01.486Z,88.35
2019-02-26T03:52:01.132Z,88.25
2019-02-26T03:53:01.097Z,88.16
2019-02-26T03:54:01.056Z,88.25
2019-02-26T03:55:03.477Z,88.35
2019-02-26T03:56:04.270Z,88.35
2019-02-26T03:57:00.945Z,88.16
2019-02-26T03:58:02.121Z,88.25
2019-02-26T03:59:04.008Z,87.97
2019-02-26T04:00:05.608Z,88.25
2019-02-26T04:01:04.489Z,88.44
2019-02-26T04:02:00.764Z,88.25
2019-02-26T04:03:00.733Z,87.97
2019-02-26T04:04:02.458Z,88.25
2019-02-26T04:05:02.920Z,87.97
2019-02-26T04:06:02.916Z,88.35
2019-02-26T04:07:01.460Z,88.35
2019-02-26T04:08:01.594Z,88.16
2019-02-26T04:09:00.497Z,88.25
2019-02-26T04:10:00.461Z,88.25
2019-02-26T04:11:01.941Z,88.25
2019-02-26T04:12:00.387Z,88.44
2019-02-26T04:13:00.342Z,88.16
2019-02-26T04:14:00.331Z,88.82
2019-02-26T04:15:00.416Z,88.68
2019-02-26T04:16:02.222Z,88.25
2019-02-26T04:17:01.635Z,89.20
2019-02-26T04:18:00.158Z,89.01
2019-02-26T04:19:00.133Z,88.92
2019-02-26T04:20:02.644Z,88.78
2019-02-26T04:21:03.688Z,88.92
2019-02-26T04:22:00.007Z,88.92
2019-02-26T04:22:59.970Z,89.01
2019-02-26T04:24:00.996Z,89.01
2019-02-26T04:25:04.546Z,89.01
2019-02-26T04:26:01.662Z,89.01
2019-02-26T04:26:59.822Z,88.82
2019-02-26T04:28:01.752Z,88.25
2019-02-26T04:28:59.754Z,89.01
2019-02-26T04:29:59.700Z,89.01
2019-02-26T04:30:59.671Z,89.01
2019-02-26T04:31:59.631Z,88.82
2019-02-26T04:33:01.383Z,89.01
2019-02-26T04:34:01.816Z,88.92
2019-02-26T04:35:01.968Z,88.92
2019-02-26T04:35:59.484Z,89.01
2019-02-26T04:37:01.428Z,89.01
2019-02-26T04:38:01.003Z,88.73
2019-02-26T04:38:59.366Z,89.01
2019-02-26T04:40:01.459Z,88.25
2019-02-26T04:41:00.509Z,89.01
2019-02-26T04:41:59.259Z,88.92
2019-02-26T04:42:59.908Z,88.92
2019-02-26T04:44:01.311Z,88.73
2019-02-26T04:45:02.138Z,88.92
2019-02-26T04:45:59.387Z,89.01
2019-02-26T04:47:00.199Z,89.01
2019-02-26T04:48:00.746Z,88.82
2019-02-26T04:48:58.998Z,88.82
2019-02-26T04:50:00.529Z,88.82
2019-02-26T04:50:58.927Z,88.92
2019-02-26T04:51:58.889Z,88.82
2019-02-26T04:53:01.945Z,88.92
2019-02-26T04:53:59.513Z,88.92
2019-02-26T04:54:58.781Z,88.92
2019-02-26T04:55:59.877Z,89.11
2019-02-26T04:56:58.700Z,88.92
2019-02-26T04:57:58.666Z,89.01
2019-02-26T04:58:58.617Z,88.73
2019-02-26T05:00:01.042Z,88.16
2019-02-26T05:00:58.549Z,89.01
2019-02-26T05:01:58.505Z,89.01
2019-02-26T05:02:58.478Z,89.01
2019-02-26T05:03:58.435Z,88.92
2019-02-26T05:04:58.390Z,88.92
2019-02-26T05:06:00.161Z,89.01
2019-02-26T05:06:58.322Z,88.82
2019-02-26T05:07:58.288Z,89.01
2019-02-26T05:09:00.180Z,88.92
2019-02-26T05:09:59.382Z,88.92
2019-02-26T05:11:00.028Z,88.25
2019-02-26T05:11:58.134Z,88.25
2019-02-26T05:13:02.718Z,89.01
2019-02-26T05:13:58.058Z,89.01
2019-02-26T05:14:58.023Z,89.11
2019-02-26T05:15:57.990Z,89.01
2019-02-26T05:16:57.949Z,88.92
2019-02-26T05:17:57.904Z,89.01
2019-02-26T05:18:58.458Z,88.92
2019-02-26T05:19:57.837Z,88.92
2019-02-26T05:20:59.313Z,89.01
2019-02-26T05:21:59.363Z,89.11
2019-02-26T05:23:00.456Z,89.01
2019-02-26T05:24:00.055Z,88.73
2019-02-26T05:24:57.647Z,89.11
2019-02-26T05:26:02.963Z,88.73
2019-02-26T05:26:57.567Z,89.11
2019-02-26T05:27:57.537Z,88.73
2019-02-26T05:28:57.499Z,88.25
2019-02-26T05:29:57.464Z,88.92
2019-02-26T05:30:57.437Z,89.01
2019-02-26T05:31:58.821Z,88.92
2019-02-26T05:33:00.221Z,88.73
2019-02-26T05:33:59.929Z,89.01
2019-02-26T05:34:57.285Z,88.82
2019-02-26T05:35:57.236Z,88.73
2019-02-26T05:36:59.657Z,88.73
2019-02-26T05:38:00.367Z,88.92
2019-02-26T05:38:59.586Z,88.92
2019-02-26T05:39:57.084Z,89.01
2019-02-26T05:40:57.047Z,88.87
2019-02-26T05:41:58.909Z,88.78
2019-02-26T05:42:58.883Z,88.87
2019-02-26T05:43:58.281Z,88.78
2019-02-26T05:44:59.923Z,89.06
2019-02-26T05:45:58.128Z,88.87
2019-02-26T05:46:58.716Z,88.87
2019-02-26T05:47:58.782Z,88.96
2019-02-26T05:48:56.747Z,88.78
2019-02-26T05:49:56.707Z,88.87
2019-02-26T05:50:57.521Z,88.78
2019-02-26T05:51:58.664Z,89.06
2019-02-26T05:53:01.025Z,88.68
2019-02-26T05:53:56.562Z,88.87
2019-02-26T05:54:56.522Z,88.68
2019-02-26T05:55:56.480Z,88.87
2019-02-26T05:56:56.446Z,88.78
2019-02-26T05:57:56.404Z,88.87
2019-02-26T05:58:56.376Z,88.78
2019-02-26T05:59:56.337Z,88.78
2019-02-26T06:00:56.298Z,88.87
2019-02-26T06:01:58.425Z,88.78
2019-02-26T06:02:56.211Z,88.78
2019-02-26T06:03:56.184Z,88.68
2019-02-26T06:04:56.149Z,88.87
2019-02-26T06:05:58.281Z,88.49
2019-02-26T06:06:57.199Z,88.68
2019-02-26T06:07:56.031Z,88.59
2019-02-26T06:08:57.983Z,88.78
2019-02-26T06:09:57.235Z,88.87
2019-02-26T06:10:55.929Z,88.96
2019-02-26T06:11:55.872Z,88.96
2019-02-26T06:12:55.837Z,88.78
2019-02-26T06:13:58.339Z,88.87
2019-02-26T06:15:00.305Z,88.78
2019-02-26T06:15:58.552Z,88.78
2019-02-26T06:16:55.902Z,88.68
2019-02-26T06:17:55.959Z,88.68
2019-02-26T06:18:55.616Z,88.78
2019-02-26T06:19:57.237Z,88.49
2019-02-26T06:20:56.710Z,88.59
2019-02-26T06:21:56.621Z,88.68
2019-02-26T06:22:55.463Z,88.68
2019-02-26T06:23:55.421Z,88.59
2019-02-26T06:24:59.562Z,88.78
2019-02-26T06:25:57.777Z,88.59
2019-02-26T06:26:55.324Z,88.68
2019-02-26T06:27:55.277Z,89.06
2019-02-26T06:28:55.237Z,88.59
2019-02-26T06:29:57.491Z,88.02
2019-02-26T06:30:55.237Z,87.83
2019-02-26T06:31:55.122Z,87.64
2019-02-26T06:32:59.560Z,87.73
2019-02-26T06:33:55.042Z,87.64
2019-02-26T06:34:55.021Z,87.83
2019-02-26T06:35:57.044Z,88.02
2019-02-26T06:36:54.934Z,87.73
2019-02-26T06:37:54.887Z,87.92
2019-02-26T06:38:56.469Z,88.30
2019-02-26T06:39:57.293Z,87.73
2019-02-26T06:40:54.778Z,88.30
2019-02-26T06:41:54.743Z,87.92
2019-02-26T06:42:54.697Z,87.83
2019-02-26T06:43:55.121Z,87.92
2019-02-26T06:44:54.627Z,87.35
2019-02-26T06:45:54.584Z,87.83
2019-02-26T06:46:54.555Z,87.35
2019-02-26T06:47:56.310Z,87.64
2019-02-26T06:48:54.480Z,88.11
2019-02-26T06:49:54.442Z,87.73
2019-02-26T06:50:55.643Z,87.83
2019-02-26T06:51:54.357Z,88.21
2019-02-26T06:52:54.327Z,87.83
2019-02-26T06:53:56.507Z,88.02
2019-02-26T06:54:57.529Z,87.92
2019-02-26T06:55:54.218Z,87.73
2019-02-26T06:56:54.181Z,87.92
2019-02-26T06:57:55.204Z,88.02
2019-02-26T06:58:54.094Z,87.92
2019-02-26T06:59:57.971Z,88.02
2019-02-26T07:00:55.484Z,88.21
2019-02-26T07:01:56.035Z,88.02
2019-02-26T07:02:53.954Z,88.11
2019-02-26T07:03:56.115Z,88.11
2019-02-26T07:04:53.873Z,88.11
2019-02-26T07:05:53.840Z,88.21
2019-02-26T07:06:55.368Z,88.11
2019-02-26T07:07:55.057Z,87.92
2019-02-26T07:08:53.723Z,87.77
2019-02-26T07:09:57.436Z,87.45
2019-02-26T07:10:53.638Z,87.73
2019-02-26T07:11:53.606Z,87.77
2019-02-26T07:12:53.559Z,88.06
2019-02-26T07:13:53.892Z,87.77
2019-02-26T07:14:55.357Z,87.77
2019-02-26T07:15:53.454Z,87.97
2019-02-26T07:16:53.424Z,87.68
2019-02-26T07:17:53.386Z,88.06
2019-02-26T07:18:53.344Z,87.87
2019-02-26T07:19:55.456Z,87.87
2019-02-26T07:20:55.955Z,88.06
2019-02-26T07:21:53.231Z,88.44
2019-02-26T07:22:53.196Z,87.87
2019-02-26T07:23:54.589Z,87.97
2019-02-26T07:24:53.975Z,88.06
2019-02-26T07:25:53.086Z,87.68
2019-02-26T07:26:53.045Z,87.68
2019-02-26T07:27:53.600Z,87.49
2019-02-26T07:28:52.975Z,87.49
2019-02-26T07:29:52.929Z,87.40
2019-02-26T07:30:52.891Z,87.87
2019-02-26T07:31:54.196Z,87.49
2019-02-26T07:32:52.811Z,87.49
2019-02-26T07:33:53.396Z,87.87
2019-02-26T07:34:52.750Z,87.49
2019-02-26T07:35:54.397Z,87.68
2019-02-26T07:36:52.662Z,87.87
2019-02-26T07:37:54.465Z,87.97
2019-02-26T07:38:54.660Z,88.16
2019-02-26T07:39:52.560Z,87.97
2019-02-26T07:40:54.187Z,87.87
2019-02-26T07:41:54.323Z,87.40
2019-02-26T07:42:52.446Z,88.16
2019-02-26T07:43:54.569Z,87.82
2019-02-26T07:44:52.376Z,87.82
2019-02-26T07:45:52.330Z,88.10
2019-02-26T07:46:52.302Z,87.45
2019-02-26T07:47:54.067Z,87.73
2019-02-26T07:48:53.992Z,87.73
2019-02-26T07:49:52.195Z,87.73
2019-02-26T07:50:52.148Z,87.73
2019-02-26T07:51:52.116Z,87.54
2019-02-26T07:52:52.655Z,87.45
2019-02-26T07:53:54.287Z,87.82
2019-02-26T07:54:52.010Z,87.35
2019-02-26T07:55:51.961Z,87.35
2019-02-26T07:56:52.498Z,87.73
2019-02-26T07:57:53.186Z,87.45
2019-02-26T07:58:51.848Z,87.45
2019-02-26T07:59:51.810Z,87.73
2019-02-26T08:00:52.331Z,87.35
2019-02-26T08:01:51.747Z,87.25
2019-02-26T08:02:53.989Z,87.35
2019-02-26T08:03:53.250Z,87.49
2019-02-26T08:04:51.626Z,87.39
2019-02-26T08:05:51.588Z,87.68
2019-02-26T08:06:52.411Z,87.39
2019-02-26T08:07:53.886Z,87.49
2019-02-26T08:08:51.479Z,87.49
2019-02-26T08:09:51.455Z,87.58
2019-02-26T08:10:53.146Z,87.49
2019-02-26T08:11:51.372Z,87.49
2019-02-26T08:12:51.343Z,87.68
2019-02-26T08:13:51.717Z,87.49
2019-02-26T08:14:51.266Z,87.77
2019-02-26T08:15:52.736Z,87.58
2019-02-26T08:16:53.665Z,87.77
2019-02-26T08:17:55.406Z,87.58
2019-02-26T08:18:52.172Z,87.58
2019-02-26T08:19:51.083Z,87.49
2019-02-26T08:20:52.736Z,87.43
2019-02-26T08:21:53.201Z,87.34
2019-02-26T08:22:51.643Z,87.24
2019-02-26T08:23:52.725Z,87.53
2019-02-26T08:24:52.713Z,87.24
2019-02-26T08:25:52.375Z,86.96
2019-02-26T08:26:50.833Z,87.05
2019-02-26T08:27:52.172Z,87.34
2019-02-26T08:28:50.752Z,87.24
2019-02-26T08:29:51.718Z,87.15
2019-02-26T08:30:52.881Z,86.77
2019-02-26T08:31:52.118Z,86.68
2019-02-26T08:32:53.478Z,86.96
2019-02-26T08:33:51.767Z,87.15
2019-02-26T08:34:50.537Z,87.15
2019-02-26T08:35:50.500Z,87.34
2019-02-26T08:36:50.460Z,87.24
2019-02-26T08:37:50.433Z,87.15
2019-02-26T08:38:52.032Z,87.62
2019-02-26T08:39:50.349Z,87.15
2019-02-26T08:40:50.309Z,87.05
2019-02-26T08:41:50.283Z,87.43
2019-02-26T08:42:50.243Z,86.96
2019-02-26T08:43:51.601Z,86.96
2019-02-26T08:44:51.224Z,87.01
2019-02-26T08:45:50.139Z,87.76
2019-02-26T08:46:50.101Z,86.91
2019-02-26T08:47:50.061Z,86.72
2019-02-26T08:48:50.832Z,87.01
2019-02-26T08:49:49.986Z,87.01
2019-02-26T08:50:49.952Z,86.82
2019-02-26T08:51:49.924Z,86.91
2019-02-26T08:52:52.733Z,87.19
2019-02-26T08:53:51.734Z,87.29
2019-02-26T08:54:49.809Z,87.19
2019-02-26T08:55:51.544Z,87.01
2019-02-26T08:56:49.736Z,86.72
2019-02-26T08:57:51.976Z,86.57
2019-02-26T08:58:49.667Z,87.14
2019-02-26T08:59:51.843Z,86.76
2019-02-26T09:00:49.600Z,86.38
2019-02-26T09:01:49.552Z,86.38
2019-02-26T09:02:53.799Z,86.57
2019-02-26T09:03:50.700Z,87.05
2019-02-26T09:04:49.451Z,85.91
2019-02-26T09:05:51.124Z,86.10
2019-02-26T09:06:50.557Z,85.91
2019-02-26T09:07:50.544Z,85.91
2019-02-26T09:08:49.311Z,86.86
2019-02-26T09:09:50.042Z,86.10
2019-02-26T09:10:49.256Z,86.05
2019-02-26T09:11:50.278Z,85.76
2019-02-26T09:12:51.685Z,85.76
2019-02-26T09:13:49.131Z,85.76
2019-02-26T09:14:49.972Z,85.95
2019-02-26T09:15:49.061Z,85.86
2019-02-26T09:16:51.968Z,85.86
2019-02-26T09:17:49.000Z,86.52
2019-02-26T09:18:48.950Z,86.05
2019-02-26T09:19:50.880Z,86.14
2019-02-26T09:20:48.886Z,85.00
2019-02-26T09:21:50.536Z,85.99
2019-02-26T09:22:52.962Z,85.52
2019-02-26T09:23:49.917Z,85.99
2019-02-26T09:24:49.464Z,85.99
2019-02-26T09:25:51.491Z,85.33
2019-02-26T09:26:49.394Z,85.99
2019-02-26T09:27:48.638Z,85.04
2019-02-26T09:28:50.084Z,84.66
2019-02-26T09:29:51.297Z,84.28
2019-02-26T09:30:48.537Z,85.24
2019-02-26T09:31:48.501Z,83.81
2019-02-26T09:32:48.468Z,84.33
2019-02-26T09:33:48.442Z,84.80
2019-02-26T09:34:48.406Z,84.52
2019-02-26T09:35:49.851Z,83.94
2019-02-26T09:36:50.689Z,83.94
2019-02-26T09:37:52.067Z,84.33
2019-02-26T09:38:49.632Z,84.13
2019-02-26T09:39:48.237Z,84.04
2019-02-26T09:40:50.102Z,83.65
2019-02-26T09:41:48.167Z,83.61
2019-02-26T09:42:51.702Z,83.80
2019-02-26T09:43:48.180Z,83.61
2019-02-26T09:44:50.159Z,83.41
2019-02-26T09:45:48.772Z,83.22
2019-02-26T09:46:48.009Z,83.41
2019-02-26T09:47:49.669Z,83.80
2019-02-26T09:48:47.919Z,83.36
2019-02-26T09:49:49.525Z,82.98
2019-02-26T09:50:48.693Z,83.36
2019-02-26T09:51:47.813Z,82.50
2019-02-26T09:52:50.252Z,82.89
2019-02-26T09:53:50.255Z,82.69
2019-02-26T09:54:48.250Z,81.78
2019-02-26T09:55:47.685Z,81.97
2019-02-26T09:56:47.649Z,82.35
2019-02-26T09:57:47.619Z,83.02
2019-02-26T09:58:48.353Z,82.07
2019-02-26T09:59:49.183Z,81.25
2019-02-26T10:00:48.005Z,81.25
2019-02-26T10:01:47.488Z,80.15
2019-02-26T10:02:49.386Z,75.60
2019-02-26T10:03:47.431Z,71.67
2019-02-26T10:04:49.451Z,67.78
2019-02-26T10:05:48.191Z,62.65
2019-02-26T10:06:47.579Z,60.77
2019-02-26T10:07:47.308Z,59.77
2019-02-26T10:08:49.088Z,57.60
2019-02-26T10:09:48.421Z,54.56
2019-02-26T10:10:47.220Z,52.76
2019-02-26T10:11:49.171Z,50.03
2019-02-26T10:12:47.164Z,48.33
2019-02-26T10:13:48.978Z,46.23
2019-02-26T10:14:47.124Z,44.41
2019-02-26T10:15:47.094Z,44.05
2019-02-26T10:16:49.243Z,42.43
2019-02-26T10:17:47.044Z,41.68
2019-02-26T10:18:47.856Z,41.51
2019-02-26T10:19:46.994Z,41.63
2019-02-26T10:20:47.627Z,40.01
2019-02-26T10:21:46.955Z,38.20
2019-02-26T10:22:46.925Z,37.93
2019-02-26T10:23:49.268Z,36.88
2019-02-26T10:24:46.880Z,35.53
2019-02-26T10:25:46.849Z,35.36
2019-02-26T10:26:46.826Z,34.60
2019-02-26T10:27:47.900Z,34.41
2019-02-26T10:28:51.669Z,33.34
2019-02-26T10:29:47.627Z,33.25
2019-02-26T10:30:46.751Z,33.45
2019-02-26T10:31:46.728Z,32.99
2019-02-26T10:32:47.022Z,32.62
2019-02-26T10:33:48.939Z,31.57
2019-02-26T10:34:46.670Z,30.32
2019-02-26T10:35:47.974Z,30.42
2019-02-26T10:36:49.314Z,29.76
2019-02-26T10:37:46.617Z,28.89
2019-02-26T10:38:46.601Z,29.28
2019-02-26T10:39:47.969Z,28.41
2019-02-26T10:40:53.958Z,29.50
2019-02-26T10:41:46.733Z,28.64
2019-02-26T10:42:46.853Z,28.26
2019-02-26T10:43:46.507Z,27.48
2019-02-26T10:44:46.477Z,26.89
2019-02-26T10:45:47.604Z,26.03
2019-02-26T10:46:46.438Z,26.61
2019-02-26T10:47:46.961Z,26.82
2019-02-26T10:48:48.049Z,27.10
2019-02-26T10:49:46.822Z,26.72
2019-02-26T10:50:49.107Z,26.72
2019-02-26T10:51:46.345Z,26.83
2019-02-26T10:52:46.326Z,26.15
2019-02-26T10:53:46.307Z,25.47
2019-02-26T10:54:46.610Z,25.96
2019-02-26T10:55:46.278Z,25.68
2019-02-26T10:56:46.261Z,25.49
2019-02-26T10:57:47.782Z,24.91
2019-02-26T10:58:46.222Z,24.43
2019-02-26T10:59:46.208Z,23.75
2019-02-26T11:00:46.177Z,24.05
2019-02-26T11:01:46.768Z,23.84
2019-02-26T11:02:48.031Z,23.36
2019-02-26T11:03:47.223Z,24.06
2019-02-26T11:04:49.268Z,24.45
2019-02-26T11:05:48.749Z,23.68
2019-02-26T11:06:46.933Z,23.49
2019-02-26T11:07:46.075Z,23.89
2019-02-26T11:08:47.516Z,23.21
2019-02-26T11:09:49.404Z,23.12
2019-02-26T11:10:47.864Z,22.63
2019-02-26T11:11:46.003Z,22.83
2019-02-26T11:12:48.011Z,22.44
2019-02-26T11:13:51.003Z,23.12
2019-02-26T11:14:45.951Z,22.25
2019-02-26T11:15:48.226Z,21.95
2019-02-26T11:16:45.912Z,22.45
2019-02-26T11:17:47.851Z,22.06
2019-02-26T11:18:47.679Z,22.25
2019-02-26T11:19:45.866Z,22.06
2019-02-26T11:20:47.856Z,22.35
2019-02-26T11:21:47.439Z,22.34
2019-02-26T11:22:47.198Z,22.45
2019-02-26T11:23:46.466Z,22.17
2019-02-26T11:24:45.783Z,20.98
2019-02-26T11:25:45.769Z,21.29
2019-02-26T11:26:45.765Z,22.46
2019-02-26T11:27:46.755Z,21.98
2019-02-26T11:28:47.770Z,21.29
2019-02-26T11:29:45.723Z,21.19
2019-02-26T11:30:46.637Z,21.19
2019-02-26T11:31:47.713Z,21.29
2019-02-26T11:32:45.649Z,22.17
2019-02-26T11:33:45.638Z,20.81
2019-02-26T11:34:45.628Z,21.01
2019-02-26T11:35:47.117Z,20.62
2019-02-26T11:36:45.588Z,21.21
2019-02-26T11:38:47.068Z,19.65
2019-02-26T11:39:45.542Z,19.64
2019-02-26T11:40:45.523Z,19.23
2019-02-26T11:41:45.507Z,20.59
2019-02-26T11:42:46.730Z,19.52
2019-02-26T11:43:45.483Z,19.53
2019-02-26T11:44:45.450Z,19.54
2019-02-26T11:45:45.442Z,18.75
2019-02-26T11:46:48.172Z,19.04
2019-02-26T11:47:45.413Z,18.85
2019-02-26T11:48:47.468Z,18.75
2019-02-26T11:49:46.692Z,19.64
2019-02-26T11:50:45.360Z,19.24
2019-02-26T11:51:45.348Z,20.12
2019-02-26T11:52:45.325Z,19.43
2019-02-26T11:53:45.780Z,19.15
2019-02-26T11:54:45.293Z,20.82
2019-02-26T11:55:45.273Z,19.24
2019-02-26T11:56:47.149Z,19.62
2019-02-26T11:57:47.370Z,20.67
2019-02-26T11:58:45.230Z,20.94
2019-02-26T11:59:45.205Z,21.05
2019-02-26T12:00:47.627Z,21.35
2019-02-26T12:01:45.179Z,22.24
2019-02-26T12:02:45.169Z,21.86
2019-02-26T12:03:45.140Z,20.19
2019-02-26T12:04:45.126Z,20.66
2019-02-26T12:05:45.116Z,21.91
2019-02-26T12:06:45.085Z,22.00
2019-02-26T12:07:46.129Z,21.82
2019-02-26T12:08:47.214Z,22.10
2019-02-26T12:09:45.041Z,21.81
2019-02-26T12:10:45.029Z,21.81
2019-02-26T12:11:45.011Z,21.80
2019-02-26T12:12:45.005Z,21.81
2019-02-26T12:13:47.229Z,22.09
2019-02-26T12:14:47.960Z,21.99
2019-02-26T12:15:44.926Z,21.99
2019-02-26T12:16:44.906Z,22.47
2019-02-26T12:17:46.122Z,22.97
2019-02-26T12:18:46.867Z,22.11
2019-02-26T12:19:44.867Z,21.64
2019-02-26T12:20:48.069Z,21.22
2019-02-26T12:21:44.813Z,21.69
2019-02-26T12:22:46.975Z,22.17
2019-02-26T12:23:46.754Z,22.45
2019-02-26T12:24:44.766Z,22.25
2019-02-26T12:25:44.756Z,23.02
2019-02-26T12:26:47.008Z,22.92
2019-02-26T12:27:45.619Z,22.91
2019-02-26T12:28:44.690Z,23.20
2019-02-26T12:29:45.567Z,23.19
2019-02-26T12:30:46.582Z,23.94
2019-02-26T12:31:44.637Z,24.43
2019-02-26T12:32:47.224Z,24.15
2019-02-26T12:33:44.602Z,24.56
2019-02-26T12:34:47.612Z,23.20
2019-02-26T12:35:44.552Z,23.66
2019-02-26T12:36:44.528Z,23.28
2019-02-26T12:37:44.508Z,22.51
2019-02-26T12:38:44.491Z,23.00
2019-02-26T12:39:47.504Z,23.89
2019-02-26T12:40:47.055Z,23.03
2019-02-26T12:41:45.223Z,22.05
2019-02-26T12:42:44.407Z,22.33
2019-02-26T12:43:46.450Z,23.27
2019-02-26T12:44:45.503Z,25.21
2019-02-26T12:45:44.346Z,26.78
2019-02-26T12:46:44.960Z,26.01
2019-02-26T12:47:46.281Z,23.46
2019-02-26T12:48:46.902Z,24.33
2019-02-26T12:49:45.089Z,24.52
2019-02-26T12:50:44.240Z,24.98
2019-02-26T12:51:44.213Z,25.55
2019-02-26T12:52:44.813Z,25.52